sensor_id;sensor_type;location;lat;lon;timestamp;pressure;altitude;pressure_sealevel;temperature;humidity
82807;BME280;72563;44.816;20.484;2024-01-07T00:01:29;98681.50;;;11.12;55.19
82807;BME280;72563;44.816;20.484;2024-01-07T00:03:54;98690.06;;;11.26;55.27
82807;BME280;72563;44.816;20.484;2024-01-07T00:06:20;98693.84;;;10.99;56.43
82807;BME280;72563;44.816;20.484;2024-01-07T00:08:45;98677.69;;;11.17;56.49
82807;BME280;72563;44.816;20.484;2024-01-07T00:11:12;98681.38;;;11.24;56.43
82807;BME280;72563;44.816;20.484;2024-01-07T00:13:38;98677.91;;;11.27;56.21
82807;BME280;72563;44.816;20.484;2024-01-07T00:16:03;98679.41;;;11.44;55.47
82807;BME280;72563;44.816;20.484;2024-01-07T00:18:29;98681.63;;;11.57;55.24
82807;BME280;72563;44.816;20.484;2024-01-07T00:20:55;98679.13;;;11.68;54.83
82807;BME280;72563;44.816;20.484;2024-01-07T00:23:20;98667.88;;;11.38;55.68
82807;BME280;72563;44.816;20.484;2024-01-07T00:25:47;98671.22;;;11.28;55.79
82807;BME280;72563;44.816;20.484;2024-01-07T00:28:12;98657.38;;;11.44;55.90
82807;BME280;72563;44.816;20.484;2024-01-07T00:30:38;98659.97;;;11.37;55.45
82807;BME280;72563;44.816;20.484;2024-01-07T00:33:03;98673.25;;;11.31;55.21
82807;BME280;72563;44.816;20.484;2024-01-07T00:35:29;98655.41;;;11.44;55.06
82807;BME280;72563;44.816;20.484;2024-01-07T00:37:54;98663.03;;;11.32;55.45
82807;BME280;72563;44.816;20.484;2024-01-07T00:40:24;98656.94;;;11.23;55.84
82807;BME280;72563;44.816;20.484;2024-01-07T00:42:50;98656.94;;;11.23;55.78
82807;BME280;72563;44.816;20.484;2024-01-07T00:45:17;98672.44;;;11.12;55.86
82807;BME280;72563;44.816;20.484;2024-01-07T00:47:43;98665.66;;;11.25;55.31
82807;BME280;72563;44.816;20.484;2024-01-07T00:50:09;98662.13;;;11.05;55.75
82807;BME280;72563;44.816;20.484;2024-01-07T00:52:34;98657.25;;;11.18;55.36
82807;BME280;72563;44.816;20.484;2024-01-07T00:55:03;98652.31;;;11.27;55.47
82807;BME280;72563;44.816;20.484;2024-01-07T00:57:29;98649.00;;;11.18;55.14
82807;BME280;72563;44.816;20.484;2024-01-07T00:59:55;98630.22;;;11.04;55.54
82807;BME280;72563;44.816;20.484;2024-01-07T01:02:20;98627.84;;;11.22;55.33
82807;BME280;72563;44.816;20.484;2024-01-07T01:04:46;98642.84;;;11.05;55.69
82807;BME280;72563;44.816;20.484;2024-01-07T01:07:12;98637.34;;;11.05;55.71
82807;BME280;72563;44.816;20.484;2024-01-07T01:09:37;98641.22;;;11.23;55.37
82807;BME280;72563;44.816;20.484;2024-01-07T01:12:04;98633.47;;;11.10;55.75
82807;BME280;72563;44.816;20.484;2024-01-07T01:14:29;98641.72;;;11.29;55.30
82807;BME280;72563;44.816;20.484;2024-01-07T01:16:55;98634.00;;;10.96;55.87
82807;BME280;72563;44.816;20.484;2024-01-07T01:19:20;98625.09;;;11.03;55.52
82807;BME280;72563;44.816;20.484;2024-01-07T01:21:46;98619.22;;;11.04;55.41
82807;BME280;72563;44.816;20.484;2024-01-07T01:24:11;98633.25;;;11.18;55.47
82807;BME280;72563;44.816;20.484;2024-01-07T01:26:37;98625.72;;;10.96;55.68
82807;BME280;72563;44.816;20.484;2024-01-07T01:29:04;98627.47;;;11.04;55.50
82807;BME280;72563;44.816;20.484;2024-01-07T01:31:30;98611.31;;;11.22;55.14
82807;BME280;72563;44.816;20.484;2024-01-07T01:33:55;98618.50;;;10.88;55.71
82807;BME280;72563;44.816;20.484;2024-01-07T01:36:21;98608.56;;;10.83;56.17
82807;BME280;72563;44.816;20.484;2024-01-07T01:38:46;98619.25;;;11.08;55.57
82807;BME280;72563;44.816;20.484;2024-01-07T01:41:14;98611.91;;;10.93;55.56
82807;BME280;72563;44.816;20.484;2024-01-07T01:43:40;98613.41;;;10.71;56.42
82807;BME280;72563;44.816;20.484;2024-01-07T01:46:05;98608.69;;;10.52;56.73
82807;BME280;72563;44.816;20.484;2024-01-07T01:48:32;98612.75;;;10.77;56.45
82807;BME280;72563;44.816;20.484;2024-01-07T01:50:58;98606.09;;;10.59;56.91
82807;BME280;72563;44.816;20.484;2024-01-07T01:53:25;98609.84;;;10.90;56.22
82807;BME280;72563;44.816;20.484;2024-01-07T01:55:52;98610.38;;;10.76;56.48
82807;BME280;72563;44.816;20.484;2024-01-07T01:58:19;98616.53;;;10.69;56.57
82807;BME280;72563;44.816;20.484;2024-01-07T02:00:45;98607.78;;;10.83;56.49
82807;BME280;72563;44.816;20.484;2024-01-07T02:03:10;98579.94;;;10.69;56.54
82807;BME280;72563;44.816;20.484;2024-01-07T02:05:36;98600.06;;;10.54;56.96
82807;BME280;72563;44.816;20.484;2024-01-07T02:08:02;98593.88;;;10.76;56.57
82807;BME280;72563;44.816;20.484;2024-01-07T02:10:28;98580.75;;;10.69;56.78
82807;BME280;72563;44.816;20.484;2024-01-07T02:13:00;98562.88;;;10.79;56.09
82807;BME280;72563;44.816;20.484;2024-01-07T02:15:25;98577.94;;;10.85;55.87
82807;BME280;72563;44.816;20.484;2024-01-07T02:17:51;98570.91;;;10.68;55.98
82807;BME280;72563;44.816;20.484;2024-01-07T02:20:17;98570.59;;;10.73;56.31
82807;BME280;72563;44.816;20.484;2024-01-07T02:22:42;98558.53;;;10.78;55.97
82807;BME280;72563;44.816;20.484;2024-01-07T02:25:08;98562.00;;;10.75;56.20
82807;BME280;72563;44.816;20.484;2024-01-07T02:27:34;98552.38;;;10.46;56.17
82807;BME280;72563;44.816;20.484;2024-01-07T02:29:59;98547.22;;;10.64;56.10
82807;BME280;72563;44.816;20.484;2024-01-07T02:32:25;98536.44;;;10.74;55.66
82807;BME280;72563;44.816;20.484;2024-01-07T02:34:51;98558.38;;;10.52;56.05
82807;BME280;72563;44.816;20.484;2024-01-07T02:37:16;98553.50;;;10.83;55.78
82807;BME280;72563;44.816;20.484;2024-01-07T02:39:42;98538.19;;;10.63;56.07
82807;BME280;72563;44.816;20.484;2024-01-07T02:42:08;98528.81;;;10.49;55.90
82807;BME280;72563;44.816;20.484;2024-01-07T02:44:34;98563.81;;;10.87;55.68
82807;BME280;72563;44.816;20.484;2024-01-07T02:46:59;98562.34;;;10.73;55.54
82807;BME280;72563;44.816;20.484;2024-01-07T02:49:25;98550.13;;;10.52;55.62
82807;BME280;72563;44.816;20.484;2024-01-07T02:51:50;98564.44;;;10.61;55.33
82807;BME280;72563;44.816;20.484;2024-01-07T02:54:16;98558.25;;;10.83;54.94
82807;BME280;72563;44.816;20.484;2024-01-07T02:56:42;98557.59;;;10.70;54.77
82807;BME280;72563;44.816;20.484;2024-01-07T02:59:07;98562.28;;;10.70;54.56
82807;BME280;72563;44.816;20.484;2024-01-07T03:01:33;98552.00;;;10.67;54.15
82807;BME280;72563;44.816;20.484;2024-01-07T03:04:05;98557.22;;;10.72;54.16
82807;BME280;72563;44.816;20.484;2024-01-07T03:06:31;98548.31;;;10.59;53.69
82807;BME280;72563;44.816;20.484;2024-01-07T03:08:57;98548.47;;;10.66;53.38
82807;BME280;72563;44.816;20.484;2024-01-07T03:11:23;98549.47;;;10.77;53.11
82807;BME280;72563;44.816;20.484;2024-01-07T03:13:48;98555.34;;;10.76;52.85
82807;BME280;72563;44.816;20.484;2024-01-07T03:16:21;98561.56;;;10.73;52.70
82807;BME280;72563;44.816;20.484;2024-01-07T03:18:47;98547.03;;;10.72;52.64
82807;BME280;72563;44.816;20.484;2024-01-07T03:21:20;98557.13;;;10.49;52.59
82807;BME280;72563;44.816;20.484;2024-01-07T03:23:47;98542.59;;;10.49;52.59
82807;BME280;72563;44.816;20.484;2024-01-07T03:26:13;98554.44;;;10.53;52.52
82807;BME280;72563;44.816;20.484;2024-01-07T03:28:38;98539.03;;;10.67;52.45
82807;BME280;72563;44.816;20.484;2024-01-07T03:31:18;98541.28;;;10.81;52.00
82807;BME280;72563;44.816;20.484;2024-01-07T03:33:44;98541.66;;;10.60;52.01
82807;BME280;72563;44.816;20.484;2024-01-07T03:36:13;98541.81;;;10.48;52.33
82807;BME280;72563;44.816;20.484;2024-01-07T03:38:40;98527.75;;;10.53;52.12
82807;BME280;72563;44.816;20.484;2024-01-07T03:41:05;98532.00;;;10.51;51.90
82807;BME280;72563;44.816;20.484;2024-01-07T03:43:31;98527.38;;;10.55;51.73
82807;BME280;72563;44.816;20.484;2024-01-07T03:45:57;98498.81;;;10.40;51.44
82807;BME280;72563;44.816;20.484;2024-01-07T03:48:22;98520.78;;;10.78;51.05
82807;BME280;72563;44.816;20.484;2024-01-07T03:50:48;98521.88;;;10.74;50.46
82807;BME280;72563;44.816;20.484;2024-01-07T03:53:14;98523.78;;;10.70;49.95
82807;BME280;72563;44.816;20.484;2024-01-07T03:55:40;98528.63;;;10.76;49.84
82807;BME280;72563;44.816;20.484;2024-01-07T03:58:05;98525.72;;;10.89;49.31
82807;BME280;72563;44.816;20.484;2024-01-07T04:00:31;98530.56;;;10.76;49.32
82807;BME280;72563;44.816;20.484;2024-01-07T04:02:57;98526.31;;;10.78;49.40
82807;BME280;72563;44.816;20.484;2024-01-07T04:05:22;98525.13;;;10.79;48.85
82807;BME280;72563;44.816;20.484;2024-01-07T04:07:48;98526.50;;;10.89;48.15
82807;BME280;72563;44.816;20.484;2024-01-07T04:10:16;98528.72;;;11.03;47.21
82807;BME280;72563;44.816;20.484;2024-01-07T04:12:42;98525.53;;;11.01;47.53
82807;BME280;72563;44.816;20.484;2024-01-07T04:15:08;98526.25;;;10.98;47.41
82807;BME280;72563;44.816;20.484;2024-01-07T04:17:33;98527.84;;;10.99;47.73
82807;BME280;72563;44.816;20.484;2024-01-07T04:19:59;98535.19;;;11.14;47.67
82807;BME280;72563;44.816;20.484;2024-01-07T04:22:24;98535.41;;;11.24;47.57
82807;BME280;72563;44.816;20.484;2024-01-07T04:24:50;98538.28;;;11.09;47.95
82807;BME280;72563;44.816;20.484;2024-01-07T04:27:15;98542.38;;;11.18;47.92
82807;BME280;72563;44.816;20.484;2024-01-07T04:29:41;98550.69;;;10.99;48.58
82807;BME280;72563;44.816;20.484;2024-01-07T04:32:06;98518.59;;;10.88;48.01
82807;BME280;72563;44.816;20.484;2024-01-07T04:34:32;98543.47;;;10.91;48.05
82807;BME280;72563;44.816;20.484;2024-01-07T04:36:57;98543.34;;;11.07;48.00
82807;BME280;72563;44.816;20.484;2024-01-07T04:39:23;98541.31;;;11.04;47.01
82807;BME280;72563;44.816;20.484;2024-01-07T04:41:48;98546.66;;;11.16;46.86
82807;BME280;72563;44.816;20.484;2024-01-07T04:44:14;98527.53;;;11.04;46.90
82807;BME280;72563;44.816;20.484;2024-01-07T04:46:39;98543.84;;;11.12;46.82
82807;BME280;72563;44.816;20.484;2024-01-07T04:49:06;98544.16;;;11.07;46.65
82807;BME280;72563;44.816;20.484;2024-01-07T04:51:35;98542.81;;;11.20;46.58
82807;BME280;72563;44.816;20.484;2024-01-07T04:54:01;98544.22;;;11.11;46.86
82807;BME280;72563;44.816;20.484;2024-01-07T04:56:27;98539.97;;;11.36;46.46
82807;BME280;72563;44.816;20.484;2024-01-07T04:58:53;98540.81;;;11.40;45.99
82807;BME280;72563;44.816;20.484;2024-01-07T05:01:18;98540.72;;;11.36;46.28
82807;BME280;72563;44.816;20.484;2024-01-07T05:03:44;98537.84;;;11.07;46.57
82807;BME280;72563;44.816;20.484;2024-01-07T05:06:10;98533.44;;;11.25;46.56
82807;BME280;72563;44.816;20.484;2024-01-07T05:08:43;98541.28;;;11.23;46.60
82807;BME280;72563;44.816;20.484;2024-01-07T05:11:08;98543.56;;;11.17;46.50
82807;BME280;72563;44.816;20.484;2024-01-07T05:13:35;98538.16;;;11.47;46.32
82807;BME280;72563;44.816;20.484;2024-01-07T05:16:00;98546.38;;;11.43;46.06
82807;BME280;72563;44.816;20.484;2024-01-07T05:18:26;98557.88;;;11.26;46.38
82807;BME280;72563;44.816;20.484;2024-01-07T05:20:52;98540.28;;;11.12;46.69
82807;BME280;72563;44.816;20.484;2024-01-07T05:23:18;98556.16;;;11.41;46.28
82807;BME280;72563;44.816;20.484;2024-01-07T05:25:44;98570.53;;;11.31;46.70
82807;BME280;72563;44.816;20.484;2024-01-07T05:28:11;98548.25;;;11.17;46.92
82807;BME280;72563;44.816;20.484;2024-01-07T05:30:37;98557.31;;;11.17;47.45
82807;BME280;72563;44.816;20.484;2024-01-07T05:33:03;98551.41;;;11.38;47.20
82807;BME280;72563;44.816;20.484;2024-01-07T05:35:28;98553.34;;;11.15;47.32
82807;BME280;72563;44.816;20.484;2024-01-07T05:37:54;98526.19;;;10.94;47.93
82807;BME280;72563;44.816;20.484;2024-01-07T05:40:21;98558.25;;;11.25;48.13
82807;BME280;72563;44.816;20.484;2024-01-07T05:42:46;98562.25;;;11.08;48.56
82807;BME280;72563;44.816;20.484;2024-01-07T05:45:12;98561.38;;;11.23;48.50
82807;BME280;72563;44.816;20.484;2024-01-07T05:47:37;98556.88;;;11.15;48.16
82807;BME280;72563;44.816;20.484;2024-01-07T05:50:03;98564.97;;;11.27;48.31
82807;BME280;72563;44.816;20.484;2024-01-07T05:52:29;98559.41;;;11.46;48.29
82807;BME280;72563;44.816;20.484;2024-01-07T05:54:54;98566.88;;;11.46;48.36
82807;BME280;72563;44.816;20.484;2024-01-07T05:57:20;98556.22;;;11.44;48.27
82807;BME280;72563;44.816;20.484;2024-01-07T05:59:46;98557.31;;;11.17;49.40
82807;BME280;72563;44.816;20.484;2024-01-07T06:02:11;98557.13;;;11.07;49.95
82807;BME280;72563;44.816;20.484;2024-01-07T06:04:38;98566.66;;;11.13;49.69
82807;BME280;72563;44.816;20.484;2024-01-07T06:07:03;98559.22;;;11.13;49.57
82807;BME280;72563;44.816;20.484;2024-01-07T06:09:29;98560.69;;;11.07;49.81
82807;BME280;72563;44.816;20.484;2024-01-07T06:11:55;98555.41;;;10.99;50.57
82807;BME280;72563;44.816;20.484;2024-01-07T06:14:22;98550.63;;;10.76;50.49
82807;BME280;72563;44.816;20.484;2024-01-07T06:16:48;98548.84;;;11.07;50.12
82807;BME280;72563;44.816;20.484;2024-01-07T06:19:16;98555.38;;;11.18;50.37
82807;BME280;72563;44.816;20.484;2024-01-07T06:21:42;98558.41;;;11.13;49.89
82807;BME280;72563;44.816;20.484;2024-01-07T06:24:08;98537.78;;;11.03;50.00
82807;BME280;72563;44.816;20.484;2024-01-07T06:26:34;98556.97;;;11.00;50.49
82807;BME280;72563;44.816;20.484;2024-01-07T06:28:59;98552.97;;;11.39;49.74
82807;BME280;72563;44.816;20.484;2024-01-07T06:31:25;98559.59;;;11.34;49.88
82807;BME280;72563;44.816;20.484;2024-01-07T06:33:51;98552.75;;;11.47;49.67
82807;BME280;72563;44.816;20.484;2024-01-07T06:36:17;98561.00;;;11.47;49.50
82807;BME280;72563;44.816;20.484;2024-01-07T06:38:42;98574.13;;;11.54;49.82
82807;BME280;72563;44.816;20.484;2024-01-07T06:41:09;98552.38;;;11.72;49.64
82807;BME280;72563;44.816;20.484;2024-01-07T06:43:35;98565.06;;;11.76;50.08
82807;BME280;72563;44.816;20.484;2024-01-07T06:46:01;98562.69;;;11.75;49.85
82807;BME280;72563;44.816;20.484;2024-01-07T06:48:26;98573.38;;;11.57;50.68
82807;BME280;72563;44.816;20.484;2024-01-07T06:50:52;98578.00;;;11.72;50.89
82807;BME280;72563;44.816;20.484;2024-01-07T06:53:17;98578.03;;;11.76;51.07
82807;BME280;72563;44.816;20.484;2024-01-07T06:55:43;98583.75;;;11.44;51.75
82807;BME280;72563;44.816;20.484;2024-01-07T06:58:08;98577.19;;;11.72;51.25
82807;BME280;72563;44.816;20.484;2024-01-07T07:00:34;98569.06;;;11.79;51.06
82807;BME280;72563;44.816;20.484;2024-01-07T07:02:59;98590.78;;;11.84;51.46
82807;BME280;72563;44.816;20.484;2024-01-07T07:05:25;98591.94;;;12.05;50.97
82807;BME280;72563;44.816;20.484;2024-01-07T07:07:50;98601.13;;;11.90;51.88
82807;BME280;72563;44.816;20.484;2024-01-07T07:10:16;98606.28;;;12.18;51.49
82807;BME280;72563;44.816;20.484;2024-01-07T07:12:41;98606.00;;;11.55;52.81
82807;BME280;72563;44.816;20.484;2024-01-07T07:15:07;98618.28;;;12.03;52.25
82807;BME280;72563;44.816;20.484;2024-01-07T07:17:35;98621.13;;;12.10;52.03
82807;BME280;72563;44.816;20.484;2024-01-07T07:20:00;98624.63;;;11.81;52.54
82807;BME280;72563;44.816;20.484;2024-01-07T07:22:26;98623.56;;;11.47;52.93
82807;BME280;72563;44.816;20.484;2024-01-07T07:24:51;98633.16;;;11.98;52.46
82807;BME280;72563;44.816;20.484;2024-01-07T07:27:17;98629.19;;;12.22;51.58
82807;BME280;72563;44.816;20.484;2024-01-07T07:29:42;98621.06;;;11.80;51.29
82807;BME280;72563;44.816;20.484;2024-01-07T07:32:08;98643.09;;;11.80;51.05
82807;BME280;72563;44.816;20.484;2024-01-07T07:34:33;98638.63;;;11.53;51.80
82807;BME280;72563;44.816;20.484;2024-01-07T07:36:59;98652.41;;;11.72;50.97
82807;BME280;72563;44.816;20.484;2024-01-07T07:39:25;98649.75;;;11.79;50.98
82807;BME280;72563;44.816;20.484;2024-01-07T07:41:51;98654.41;;;11.75;51.10
82807;BME280;72563;44.816;20.484;2024-01-07T07:44:16;98652.91;;;11.78;50.78
82807;BME280;72563;44.816;20.484;2024-01-07T07:46:41;98655.03;;;11.88;50.68
82807;BME280;72563;44.816;20.484;2024-01-07T07:49:07;98665.63;;;11.86;50.92
82807;BME280;72563;44.816;20.484;2024-01-07T07:51:32;98677.34;;;11.79;51.02
82807;BME280;72563;44.816;20.484;2024-01-07T07:53:58;98664.34;;;11.80;50.77
82807;BME280;72563;44.816;20.484;2024-01-07T07:56:23;98673.44;;;11.80;50.91
82807;BME280;72563;44.816;20.484;2024-01-07T07:58:49;98683.19;;;11.97;50.99
82807;BME280;72563;44.816;20.484;2024-01-07T08:01:15;98688.00;;;11.61;51.19
82807;BME280;72563;44.816;20.484;2024-01-07T08:03:40;98693.38;;;11.74;51.12
82807;BME280;72563;44.816;20.484;2024-01-07T08:06:06;98694.25;;;11.78;50.92
82807;BME280;72563;44.816;20.484;2024-01-07T08:08:31;98626.28;;;11.43;50.83
82807;BME280;72563;44.816;20.484;2024-01-07T08:10:57;98697.19;;;11.88;50.80
82807;BME280;72563;44.816;20.484;2024-01-07T08:13:23;98697.00;;;11.78;51.22
82807;BME280;72563;44.816;20.484;2024-01-07T08:15:48;98699.75;;;11.78;51.33
82807;BME280;72563;44.816;20.484;2024-01-07T08:18:14;98702.75;;;11.69;51.71
82807;BME280;72563;44.816;20.484;2024-01-07T08:20:39;98699.72;;;11.97;50.89
82807;BME280;72563;44.816;20.484;2024-01-07T08:23:05;98708.34;;;11.95;51.26
82807;BME280;72563;44.816;20.484;2024-01-07T08:25:31;98702.09;;;11.98;51.67
82807;BME280;72563;44.816;20.484;2024-01-07T08:27:57;98706.19;;;11.85;51.85
82807;BME280;72563;44.816;20.484;2024-01-07T08:30:23;98702.09;;;11.76;52.59
82807;BME280;72563;44.816;20.484;2024-01-07T08:32:49;98706.75;;;11.94;51.98
82807;BME280;72563;44.816;20.484;2024-01-07T08:35:14;98710.06;;;11.81;52.81
82807;BME280;72563;44.816;20.484;2024-01-07T08:37:40;98716.25;;;11.17;55.09
82807;BME280;72563;44.816;20.484;2024-01-07T08:40:06;98713.75;;;11.12;56.05
82807;BME280;72563;44.816;20.484;2024-01-07T08:42:35;98714.56;;;11.12;55.89
82807;BME280;72563;44.816;20.484;2024-01-07T08:45:00;98705.59;;;11.15;56.52
82807;BME280;72563;44.816;20.484;2024-01-07T08:47:26;98704.78;;;11.53;55.74
82807;BME280;72563;44.816;20.484;2024-01-07T08:49:52;98690.94;;;11.69;55.03
82807;BME280;72563;44.816;20.484;2024-01-07T08:52:19;98689.72;;;11.66;54.92
82807;BME280;72563;44.816;20.484;2024-01-07T08:54:44;98706.06;;;11.59;55.26
82807;BME280;72563;44.816;20.484;2024-01-07T08:57:10;98700.13;;;11.76;54.26
82807;BME280;72563;44.816;20.484;2024-01-07T08:59:36;98710.00;;;12.22;53.02
82807;BME280;72563;44.816;20.484;2024-01-07T09:02:01;98692.44;;;12.34;52.74
82807;BME280;72563;44.816;20.484;2024-01-07T09:04:27;98711.25;;;12.51;52.61
82807;BME280;72563;44.816;20.484;2024-01-07T09:06:53;98712.53;;;12.57;51.90
82807;BME280;72563;44.816;20.484;2024-01-07T09:09:18;98708.13;;;12.52;52.05
82807;BME280;72563;44.816;20.484;2024-01-07T09:11:44;98714.13;;;12.84;51.39
82807;BME280;72563;44.816;20.484;2024-01-07T09:14:10;98716.47;;;12.82;51.57
82807;BME280;72563;44.816;20.484;2024-01-07T09:16:36;98714.28;;;12.69;50.71
82807;BME280;72563;44.816;20.484;2024-01-07T09:19:01;98715.50;;;12.45;51.00
82807;BME280;72563;44.816;20.484;2024-01-07T09:21:27;98708.25;;;12.60;50.98
82807;BME280;72563;44.816;20.484;2024-01-07T09:23:53;98702.59;;;12.52;51.47
82807;BME280;72563;44.816;20.484;2024-01-07T09:26:18;98703.34;;;12.49;51.76
82807;BME280;72563;44.816;20.484;2024-01-07T09:28:44;98703.56;;;12.15;53.65
82807;BME280;72563;44.816;20.484;2024-01-07T09:31:09;98699.41;;;12.24;54.31
82807;BME280;72563;44.816;20.484;2024-01-07T09:33:35;98697.13;;;12.30;55.86
82807;BME280;72563;44.816;20.484;2024-01-07T09:36:01;98699.81;;;12.26;57.22
82807;BME280;72563;44.816;20.484;2024-01-07T09:38:26;98699.84;;;12.52;58.19
82807;BME280;72563;44.816;20.484;2024-01-07T09:40:52;98697.63;;;12.62;58.35
82807;BME280;72563;44.816;20.484;2024-01-07T09:43:19;98684.69;;;12.66;58.85
82807;BME280;72563;44.816;20.484;2024-01-07T09:45:46;98687.66;;;12.54;59.23
82807;BME280;72563;44.816;20.484;2024-01-07T09:48:15;98681.06;;;12.62;58.94
82807;BME280;72563;44.816;20.484;2024-01-07T09:50:41;98685.53;;;12.70;59.00
82807;BME280;72563;44.816;20.484;2024-01-07T09:53:13;98689.19;;;12.51;59.76
82807;BME280;72563;44.816;20.484;2024-01-07T09:55:47;98683.94;;;12.20;59.95
82807;BME280;72563;44.816;20.484;2024-01-07T09:58:17;98689.22;;;12.28;59.32
82807;BME280;72563;44.816;20.484;2024-01-07T10:00:42;98694.25;;;11.78;61.06
82807;BME280;72563;44.816;20.484;2024-01-07T10:03:08;98685.28;;;12.52;59.14
82807;BME280;72563;44.816;20.484;2024-01-07T10:05:33;98672.25;;;13.05;57.09
82807;BME280;72563;44.816;20.484;2024-01-07T10:07:59;98671.25;;;12.94;57.37
82807;BME280;72563;44.816;20.484;2024-01-07T10:10:25;98666.81;;;13.15;57.04
82807;BME280;72563;44.816;20.484;2024-01-07T10:12:51;98663.41;;;13.25;57.15
82807;BME280;72563;44.816;20.484;2024-01-07T10:15:18;98673.75;;;13.32;56.89
82807;BME280;72563;44.816;20.484;2024-01-07T10:17:44;98680.94;;;13.73;55.23
82807;BME280;72563;44.816;20.484;2024-01-07T10:20:11;98688.44;;;13.06;56.55
82807;BME280;72563;44.816;20.484;2024-01-07T10:22:37;98692.38;;;13.39;56.21
82807;BME280;72563;44.816;20.484;2024-01-07T10:25:06;98683.25;;;13.68;54.84
82807;BME280;72563;44.816;20.484;2024-01-07T10:27:38;98680.19;;;13.76;54.11
82807;BME280;72563;44.816;20.484;2024-01-07T10:30:04;98677.88;;;13.85;54.13
82807;BME280;72563;44.816;20.484;2024-01-07T10:32:30;98677.41;;;13.76;54.01
82807;BME280;72563;44.816;20.484;2024-01-07T10:35:02;98672.75;;;13.84;53.26
82807;BME280;72563;44.816;20.484;2024-01-07T10:37:31;98670.97;;;13.65;53.67
82807;BME280;72563;44.816;20.484;2024-01-07T10:39:58;98677.22;;;13.59;54.21
82807;BME280;72563;44.816;20.484;2024-01-07T10:42:31;98670.84;;;13.95;53.32
82807;BME280;72563;44.816;20.484;2024-01-07T10:44:58;98670.41;;;13.89;53.06
82807;BME280;72563;44.816;20.484;2024-01-07T10:47:30;98674.16;;;13.67;53.89
82807;BME280;72563;44.816;20.484;2024-01-07T10:49:57;98663.94;;;13.75;53.57
82807;BME280;72563;44.816;20.484;2024-01-07T10:52:24;98668.97;;;13.29;54.44
82807;BME280;72563;44.816;20.484;2024-01-07T10:54:52;98672.06;;;13.57;53.68
82807;BME280;72563;44.816;20.484;2024-01-07T10:57:27;98664.31;;;13.37;53.95
82807;BME280;72563;44.816;20.484;2024-01-07T10:59:56;98661.22;;;13.08;54.92
82807;BME280;72563;44.816;20.484;2024-01-07T11:02:23;98676.41;;;12.95;55.79
82807;BME280;72563;44.816;20.484;2024-01-07T11:05:15;98651.19;;;12.97;55.96
82807;BME280;72563;44.816;20.484;2024-01-07T11:07:44;98669.53;;;12.82;57.46
82807;BME280;72563;44.816;20.484;2024-01-07T11:10:19;98672.94;;;12.72;57.65
82807;BME280;72563;44.816;20.484;2024-01-07T11:12:55;98662.41;;;12.81;57.41
82807;BME280;72563;44.816;20.484;2024-01-07T11:18:20;98659.22;;;13.39;55.26
82807;BME280;72563;44.816;20.484;2024-01-07T11:20:47;98670.78;;;13.48;55.27
82807;BME280;72563;44.816;20.484;2024-01-07T11:23:34;98677.03;;;13.11;56.95
82807;BME280;72563;44.816;20.484;2024-01-07T11:26:05;98668.91;;;13.25;56.72
82807;BME280;72563;44.816;20.484;2024-01-07T11:28:50;98675.13;;;13.49;55.49
82807;BME280;72563;44.816;20.484;2024-01-07T11:31:18;98653.09;;;13.22;56.12
82807;BME280;72563;44.816;20.484;2024-01-07T11:33:48;98669.75;;;13.29;56.31
82807;BME280;72563;44.816;20.484;2024-01-07T11:36:17;98650.31;;;13.19;56.95
82807;BME280;72563;44.816;20.484;2024-01-07T11:38:49;98673.72;;;13.28;56.98
82807;BME280;72563;44.816;20.484;2024-01-07T11:41:16;98667.97;;;13.11;57.60
82807;BME280;72563;44.816;20.484;2024-01-07T11:43:56;98669.13;;;13.10;57.68
82807;BME280;72563;44.816;20.484;2024-01-07T11:46:24;98663.63;;;13.13;57.47
82807;BME280;72563;44.816;20.484;2024-01-07T11:48:53;98662.50;;;13.14;56.56
82807;BME280;72563;44.816;20.484;2024-01-07T11:51:19;98661.81;;;13.24;56.63
82807;BME280;72563;44.816;20.484;2024-01-07T11:53:47;98646.53;;;13.34;55.99
82807;BME280;72563;44.816;20.484;2024-01-07T11:56:13;98659.88;;;13.28;56.44
82807;BME280;72563;44.816;20.484;2024-01-07T11:58:40;98653.44;;;13.17;56.80
82807;BME280;72563;44.816;20.484;2024-01-07T12:01:06;98652.31;;;13.22;56.72
82807;BME280;72563;44.816;20.484;2024-01-07T12:03:32;98649.56;;;13.25;56.71
82807;BME280;72563;44.816;20.484;2024-01-07T12:05:57;98645.75;;;13.34;56.59
82807;BME280;72563;44.816;20.484;2024-01-07T12:08:23;98655.03;;;13.18;56.92
82807;BME280;72563;44.816;20.484;2024-01-07T12:10:49;98659.47;;;13.26;56.92
82807;BME280;72563;44.816;20.484;2024-01-07T12:13:15;98662.34;;;13.34;56.89
82807;BME280;72563;44.816;20.484;2024-01-07T12:15:41;98670.81;;;13.51;57.13
82807;BME280;72563;44.816;20.484;2024-01-07T12:18:06;98656.69;;;13.60;57.21
82807;BME280;72563;44.816;20.484;2024-01-07T12:20:32;98654.38;;;13.65;56.87
82807;BME280;72563;44.816;20.484;2024-01-07T12:23:05;98650.25;;;13.49;57.11
82807;BME280;72563;44.816;20.484;2024-01-07T12:25:31;98665.41;;;13.62;56.85
82807;BME280;72563;44.816;20.484;2024-01-07T12:27:57;98663.06;;;13.64;56.42
82807;BME280;72563;44.816;20.484;2024-01-07T12:30:24;98670.00;;;13.51;56.50
82807;BME280;72563;44.816;20.484;2024-01-07T12:32:52;98672.44;;;13.56;56.78
82807;BME280;72563;44.816;20.484;2024-01-07T12:35:17;98658.78;;;13.70;56.32
82807;BME280;72563;44.816;20.484;2024-01-07T12:37:43;98670.31;;;13.79;56.29
82807;BME280;72563;44.816;20.484;2024-01-07T12:40:10;98670.59;;;13.70;56.35
82807;BME280;72563;44.816;20.484;2024-01-07T12:42:37;98663.00;;;13.60;55.81
82807;BME280;72563;44.816;20.484;2024-01-07T12:45:06;98675.94;;;13.19;57.19
82807;BME280;72563;44.816;20.484;2024-01-07T12:47:32;98677.72;;;13.68;55.83
82807;BME280;72563;44.816;20.484;2024-01-07T12:49:58;98679.63;;;14.00;54.76